sensor_id;sensor_type;location;lat;lon;timestamp;P1;durP1;ratioP1;P2;durP2;ratioP2
51304;SDS011;37392;50.964;6.952;2023-02-07T00:01:14;24.98;;;10.00;;
51304;SDS011;37392;50.964;6.952;2023-02-07T00:03:42;20.38;;;8.05;;
51304;SDS011;37392;50.964;6.952;2023-02-07T00:06:20;29.63;;;9.52;;
51304;SDS011;37392;50.964;6.952;2023-02-07T00:08:52;29.77;;;8.45;;
51304;SDS011;37392;50.964;6.952;2023-02-07T00:11:19;27.02;;;9.82;;
51304;SDS011;37392;50.964;6.952;2023-02-07T00:13:48;28.45;;;9.10;;
51304;SDS011;37392;50.964;6.952;2023-02-07T00:16:18;25.30;;;9.95;;
51304;SDS011;37392;50.964;6.952;2023-02-07T00:18:44;26.77;;;10.05;;
51304;SDS011;37392;50.964;6.952;2023-02-07T00:21:12;29.13;;;9.77;;
51304;SDS011;37392;50.964;6.952;2023-02-07T00:23:43;21.50;;;10.02;;
51304;SDS011;37392;50.964;6.952;2023-02-07T00:26:10;28.42;;;9.80;;
51304;SDS011;37392;50.964;6.952;2023-02-07T00:28:39;17.88;;;9.55;;
51304;SDS011;37392;50.964;6.952;2023-02-07T00:31:09;22.90;;;9.40;;
51304;SDS011;37392;50.964;6.952;2023-02-07T00:33:44;27.35;;;9.48;;
51304;SDS011;37392;50.964;6.952;2023-02-07T00:36:13;29.25;;;10.02;;
51304;SDS011;37392;50.964;6.952;2023-02-07T00:38:43;27.25;;;10.25;;
51304;SDS011;37392;50.964;6.952;2023-02-07T00:41:10;29.85;;;9.35;;
51304;SDS011;37392;50.964;6.952;2023-02-07T00:43:41;35.53;;;9.80;;
51304;SDS011;37392;50.964;6.952;2023-02-07T00:46:07;33.17;;;9.93;;
51304;SDS011;37392;50.964;6.952;2023-02-07T00:48:33;23.58;;;9.15;;
51304;SDS011;37392;50.964;6.952;2023-02-07T00:50:59;26.20;;;9.20;;
51304;SDS011;37392;50.964;6.952;2023-02-07T00:53:25;25.38;;;9.35;;
51304;SDS011;37392;50.964;6.952;2023-02-07T00:55:52;33.05;;;9.88;;
51304;SDS011;37392;50.964;6.952;2023-02-07T00:58:18;27.67;;;10.93;;
51304;SDS011;37392;50.964;6.952;2023-02-07T01:00:44;21.70;;;9.10;;
51304;SDS011;37392;50.964;6.952;2023-02-07T01:03:10;25.48;;;10.23;;
51304;SDS011;37392;50.964;6.952;2023-02-07T01:05:36;32.17;;;10.60;;
51304;SDS011;37392;50.964;6.952;2023-02-07T01:08:01;30.08;;;9.88;;
51304;SDS011;37392;50.964;6.952;2023-02-07T01:10:27;35.53;;;11.13;;
51304;SDS011;37392;50.964;6.952;2023-02-07T01:12:53;28.75;;;11.38;;
51304;SDS011;37392;50.964;6.952;2023-02-07T01:15:19;28.40;;;10.15;;
51304;SDS011;37392;50.964;6.952;2023-02-07T01:17:44;24.95;;;10.48;;
51304;SDS011;37392;50.964;6.952;2023-02-07T01:20:10;22.38;;;9.73;;
51304;SDS011;37392;50.964;6.952;2023-02-07T01:22:37;29.05;;;10.20;;
51304;SDS011;37392;50.964;6.952;2023-02-07T01:25:03;26.20;;;9.60;;
51304;SDS011;37392;50.964;6.952;2023-02-07T01:27:30;29.88;;;10.40;;
51304;SDS011;37392;50.964;6.952;2023-02-07T01:29:57;31.63;;;11.60;;
51304;SDS011;37392;50.964;6.952;2023-02-07T01:32:23;25.63;;;9.52;;
51304;SDS011;37392;50.964;6.952;2023-02-07T01:34:49;28.83;;;10.55;;
51304;SDS011;37392;50.964;6.952;2023-02-07T01:37:14;20.63;;;9.02;;
51304;SDS011;37392;50.964;6.952;2023-02-07T01:39:40;29.52;;;8.60;;
51304;SDS011;37392;50.964;6.952;2023-02-07T01:42:06;22.83;;;10.15;;
51304;SDS011;37392;50.964;6.952;2023-02-07T01:47:03;28.92;;;9.50;;
51304;SDS011;37392;50.964;6.952;2023-02-07T01:49:30;24.30;;;9.73;;
51304;SDS011;37392;50.964;6.952;2023-02-07T01:52:08;23.27;;;9.38;;
51304;SDS011;37392;50.964;6.952;2023-02-07T01:54:40;23.27;;;9.98;;
51304;SDS011;37392;50.964;6.952;2023-02-07T01:57:09;24.98;;;9.70;;
51304;SDS011;37392;50.964;6.952;2023-02-07T01:59:39;25.85;;;8.85;;
51304;SDS011;37392;50.964;6.952;2023-02-07T02:02:08;32.03;;;11.85;;
51304;SDS011;37392;50.964;6.952;2023-02-07T02:04:37;24.45;;;9.75;;
51304;SDS011;37392;50.964;6.952;2023-02-07T02:07:04;22.85;;;10.15;;
51304;SDS011;37392;50.964;6.952;2023-02-07T02:09:32;22.10;;;7.97;;
51304;SDS011;37392;50.964;6.952;2023-02-07T02:15:11;20.80;;;8.27;;
51304;SDS011;37392;50.964;6.952;2023-02-07T02:29:41;30.65;;;10.40;;
51304;SDS011;37392;50.964;6.952;2023-02-07T02:36:08;26.38;;;10.32;;
51304;SDS011;37392;50.964;6.952;2023-02-07T02:38:59;32.67;;;9.85;;
51304;SDS011;37392;50.964;6.952;2023-02-07T02:42:16;29.38;;;9.35;;
51304;SDS011;37392;50.964;6.952;2023-02-07T02:45:02;23.48;;;10.13;;
51304;SDS011;37392;50.964;6.952;2023-02-07T02:47:41;20.95;;;9.90;;
51304;SDS011;37392;50.964;6.952;2023-02-07T02:50:11;24.42;;;10.68;;
51304;SDS011;37392;50.964;6.952;2023-02-07T02:52:42;25.60;;;10.15;;
51304;SDS011;37392;50.964;6.952;2023-02-07T02:55:07;33.70;;;9.73;;
51304;SDS011;37392;50.964;6.952;2023-02-07T03:00:35;29.13;;;10.18;;
51304;SDS011;37392;50.964;6.952;2023-02-07T03:14:53;25.50;;;9.25;;
51304;SDS011;37392;50.964;6.952;2023-02-07T03:20:31;29.27;;;9.65;;
51304;SDS011;37392;50.964;6.952;2023-02-07T03:23:01;19.15;;;8.75;;
51304;SDS011;37392;50.964;6.952;2023-02-07T03:25:30;17.05;;;7.40;;
51304;SDS011;37392;50.964;6.952;2023-02-07T03:27:56;16.17;;;7.45;;
51304;SDS011;37392;50.964;6.952;2023-02-07T03:30:23;25.50;;;8.75;;
51304;SDS011;37392;50.964;6.952;2023-02-07T03:32:55;17.15;;;9.13;;
51304;SDS011;37392;50.964;6.952;2023-02-07T03:38:00;18.35;;;8.27;;
51304;SDS011;37392;50.964;6.952;2023-02-07T03:40:28;15.18;;;7.45;;
51304;SDS011;37392;50.964;6.952;2023-02-07T03:43:14;27.20;;;10.38;;
51304;SDS011;37392;50.964;6.952;2023-02-07T03:45:44;24.73;;;8.40;;
51304;SDS011;37392;50.964;6.952;2023-02-07T03:48:10;20.40;;;8.50;;
51304;SDS011;37392;50.964;6.952;2023-02-07T03:50:36;21.65;;;8.90;;
51304;SDS011;37392;50.964;6.952;2023-02-07T03:53:01;24.85;;;8.55;;
51304;SDS011;37392;50.964;6.952;2023-02-07T03:55:27;29.45;;;9.23;;
51304;SDS011;37392;50.964;6.952;2023-02-07T03:57:53;34.17;;;13.38;;
51304;SDS011;37392;50.964;6.952;2023-02-07T04:00:18;22.25;;;9.70;;
51304;SDS011;37392;50.964;6.952;2023-02-07T04:02:44;37.65;;;12.02;;
51304;SDS011;37392;50.964;6.952;2023-02-07T04:05:10;18.77;;;9.50;;
51304;SDS011;37392;50.964;6.952;2023-02-07T04:07:36;27.88;;;9.65;;
51304;SDS011;37392;50.964;6.952;2023-02-07T04:10:03;22.00;;;9.32;;
51304;SDS011;37392;50.964;6.952;2023-02-07T04:12:29;22.45;;;10.52;;
51304;SDS011;37392;50.964;6.952;2023-02-07T04:15:01;20.40;;;9.63;;
51304;SDS011;37392;50.964;6.952;2023-02-07T04:17:29;25.17;;;10.20;;
51304;SDS011;37392;50.964;6.952;2023-02-07T04:19:55;22.60;;;9.38;;
51304;SDS011;37392;50.964;6.952;2023-02-07T04:22:20;18.80;;;8.30;;
51304;SDS011;37392;50.964;6.952;2023-02-07T04:24:46;22.60;;;8.93;;
51304;SDS011;37392;50.964;6.952;2023-02-07T04:27:12;23.15;;;9.65;;
51304;SDS011;37392;50.964;6.952;2023-02-07T04:29:37;27.20;;;9.80;;
51304;SDS011;37392;50.964;6.952;2023-02-07T04:32:03;24.60;;;8.80;;
51304;SDS011;37392;50.964;6.952;2023-02-07T04:34:29;19.65;;;8.68;;
51304;SDS011;37392;50.964;6.952;2023-02-07T04:36:54;19.65;;;8.23;;
51304;SDS011;37392;50.964;6.952;2023-02-07T04:39:20;26.85;;;9.05;;
51304;SDS011;37392;50.964;6.952;2023-02-07T04:41:46;16.27;;;8.77;;
51304;SDS011;37392;50.964;6.952;2023-02-07T04:44:12;20.60;;;9.52;;
51304;SDS011;37392;50.964;6.952;2023-02-07T04:46:37;18.92;;;8.13;;
51304;SDS011;37392;50.964;6.952;2023-02-07T04:49:03;22.98;;;8.70;;
51304;SDS011;37392;50.964;6.952;2023-02-07T04:51:29;14.27;;;7.47;;
51304;SDS011;37392;50.964;6.952;2023-02-07T04:53:56;25.08;;;8.20;;
51304;SDS011;37392;50.964;6.952;2023-02-07T04:56:22;15.80;;;7.63;;
51304;SDS011;37392;50.964;6.952;2023-02-07T04:58:48;20.60;;;8.10;;
51304;SDS011;37392;50.964;6.952;2023-02-07T05:01:14;22.65;;;8.77;;
51304;SDS011;37392;50.964;6.952;2023-02-07T05:03:40;18.05;;;8.40;;
51304;SDS011;37392;50.964;6.952;2023-02-07T05:06:05;20.70;;;8.10;;
51304;SDS011;37392;50.964;6.952;2023-02-07T05:08:31;14.10;;;6.95;;
51304;SDS011;37392;50.964;6.952;2023-02-07T05:10:57;14.73;;;7.28;;
51304;SDS011;37392;50.964;6.952;2023-02-07T05:13:23;20.40;;;8.27;;
51304;SDS011;37392;50.964;6.952;2023-02-07T05:15:49;16.60;;;7.35;;
51304;SDS011;37392;50.964;6.952;2023-02-07T05:18:15;14.77;;;7.03;;
51304;SDS011;37392;50.964;6.952;2023-02-07T05:20:41;21.83;;;6.47;;
51304;SDS011;37392;50.964;6.952;2023-02-07T05:23:06;13.32;;;6.93;;
51304;SDS011;37392;50.964;6.952;2023-02-07T05:25:32;11.90;;;6.18;;
51304;SDS011;37392;50.964;6.952;2023-02-07T05:27:58;17.90;;;8.68;;
51304;SDS011;37392;50.964;6.952;2023-02-07T05:30:23;21.15;;;7.35;;
51304;SDS011;37392;50.964;6.952;2023-02-07T05:32:49;15.50;;;6.78;;
51304;SDS011;37392;50.964;6.952;2023-02-07T05:35:34;15.27;;;5.97;;
51304;SDS011;37392;50.964;6.952;2023-02-07T05:38:06;12.40;;;6.72;;
51304;SDS011;37392;50.964;6.952;2023-02-07T05:43:02;14.43;;;7.00;;
51304;SDS011;37392;50.964;6.952;2023-02-07T05:45:27;13.63;;;6.30;;
51304;SDS011;37392;50.964;6.952;2023-02-07T05:47:53;15.57;;;7.45;;
51304;SDS011;37392;50.964;6.952;2023-02-07T05:50:19;20.77;;;6.30;;
51304;SDS011;37392;50.964;6.952;2023-02-07T05:52:45;17.50;;;5.82;;
51304;SDS011;37392;50.964;6.952;2023-02-07T05:55:10;13.10;;;6.13;;
51304;SDS011;37392;50.964;6.952;2023-02-07T05:57:38;15.18;;;7.30;;
51304;SDS011;37392;50.964;6.952;2023-02-07T06:00:08;13.10;;;6.63;;
51304;SDS011;37392;50.964;6.952;2023-02-07T06:02:40;14.55;;;6.75;;
51304;SDS011;37392;50.964;6.952;2023-02-07T06:05:07;12.07;;;5.75;;
51304;SDS011;37392;50.964;6.952;2023-02-07T06:07:35;11.80;;;6.45;;
51304;SDS011;37392;50.964;6.952;2023-02-07T06:10:01;14.15;;;7.45;;
51304;SDS011;37392;50.964;6.952;2023-02-07T06:12:31;12.90;;;6.75;;
51304;SDS011;37392;50.964;6.952;2023-02-07T06:14:58;10.50;;;5.93;;
51304;SDS011;37392;50.964;6.952;2023-02-07T06:17:24;14.93;;;6.05;;
51304;SDS011;37392;50.964;6.952;2023-02-07T06:19:50;13.77;;;6.20;;
51304;SDS011;37392;50.964;6.952;2023-02-07T06:22:16;13.73;;;6.65;;
51304;SDS011;37392;50.964;6.952;2023-02-07T06:24:42;13.75;;;6.18;;
51304;SDS011;37392;50.964;6.952;2023-02-07T06:27:07;12.35;;;5.75;;
51304;SDS011;37392;50.964;6.952;2023-02-07T06:29:33;12.77;;;6.35;;
51304;SDS011;37392;50.964;6.952;2023-02-07T06:31:59;13.30;;;6.32;;
51304;SDS011;37392;50.964;6.952;2023-02-07T06:34:24;12.38;;;6.78;;
51304;SDS011;37392;50.964;6.952;2023-02-07T06:36:50;11.00;;;5.68;;
51304;SDS011;37392;50.964;6.952;2023-02-07T06:39:15;11.45;;;6.55;;
51304;SDS011;37392;50.964;6.952;2023-02-07T06:41:41;14.55;;;6.10;;
51304;SDS011;37392;50.964;6.952;2023-02-07T06:44:07;12.48;;;6.30;;
51304;SDS011;37392;50.964;6.952;2023-02-07T06:46:32;11.65;;;5.60;;
51304;SDS011;37392;50.964;6.952;2023-02-07T06:48:58;17.25;;;6.32;;
51304;SDS011;37392;50.964;6.952;2023-02-07T06:51:24;11.73;;;5.30;;
51304;SDS011;37392;50.964;6.952;2023-02-07T06:53:49;12.85;;;5.57;;
51304;SDS011;37392;50.964;6.952;2023-02-07T06:56:15;7.78;;;4.80;;
51304;SDS011;37392;50.964;6.952;2023-02-07T06:58:41;12.32;;;6.10;;
51304;SDS011;37392;50.964;6.952;2023-02-07T07:01:06;8.77;;;5.78;;
51304;SDS011;37392;50.964;6.952;2023-02-07T07:03:32;13.32;;;6.07;;
51304;SDS011;37392;50.964;6.952;2023-02-07T07:06:01;8.38;;;5.68;;
51304;SDS011;37392;50.964;6.952;2023-02-07T07:08:28;10.63;;;5.47;;
51304;SDS011;37392;50.964;6.952;2023-02-07T07:10:54;8.93;;;4.65;;
51304;SDS011;37392;50.964;6.952;2023-02-07T07:13:21;11.10;;;5.10;;
51304;SDS011;37392;50.964;6.952;2023-02-07T07:15:46;10.70;;;6.03;;
51304;SDS011;37392;50.964;6.952;2023-02-07T07:18:12;11.48;;;5.65;;
51304;SDS011;37392;50.964;6.952;2023-02-07T07:20:38;13.13;;;5.93;;
51304;SDS011;37392;50.964;6.952;2023-02-07T07:23:04;8.77;;;5.43;;
51304;SDS011;37392;50.964;6.952;2023-02-07T07:25:29;16.80;;;6.10;;
51304;SDS011;37392;50.964;6.952;2023-02-07T07:27:55;20.42;;;7.13;;
51304;SDS011;37392;50.964;6.952;2023-02-07T07:30:21;11.65;;;5.50;;
51304;SDS011;37392;50.964;6.952;2023-02-07T07:32:47;9.63;;;4.85;;
51304;SDS011;37392;50.964;6.952;2023-02-07T07:35:13;10.55;;;5.35;;
51304;SDS011;37392;50.964;6.952;2023-02-07T07:37:38;6.93;;;4.43;;
51304;SDS011;37392;50.964;6.952;2023-02-07T07:40:06;10.82;;;5.35;;
51304;SDS011;37392;50.964;6.952;2023-02-07T07:42:32;8.50;;;5.20;;
51304;SDS011;37392;50.964;6.952;2023-02-07T07:44:59;12.70;;;4.53;;
51304;SDS011;37392;50.964;6.952;2023-02-07T07:47:25;9.27;;;5.68;;
51304;SDS011;37392;50.964;6.952;2023-02-07T07:49:51;9.00;;;5.00;;
51304;SDS011;37392;50.964;6.952;2023-02-07T07:52:17;10.18;;;5.82;;
51304;SDS011;37392;50.964;6.952;2023-02-07T07:54:43;8.35;;;5.30;;
51304;SDS011;37392;50.964;6.952;2023-02-07T07:57:08;6.95;;;4.70;;
51304;SDS011;37392;50.964;6.952;2023-02-07T07:59:34;8.05;;;4.30;;
51304;SDS011;37392;50.964;6.952;2023-02-07T08:02:00;5.97;;;4.05;;
51304;SDS011;37392;50.964;6.952;2023-02-07T08:04:25;7.97;;;4.65;;
51304;SDS011;37392;50.964;6.952;2023-02-07T08:06:51;8.00;;;4.30;;
51304;SDS011;37392;50.964;6.952;2023-02-07T08:09:16;9.60;;;4.05;;
51304;SDS011;37392;50.964;6.952;2023-02-07T08:11:42;7.70;;;4.32;;
51304;SDS011;37392;50.964;6.952;2023-02-07T08:14:11;7.97;;;4.78;;
51304;SDS011;37392;50.964;6.952;2023-02-07T08:16:36;7.70;;;5.18;;
51304;SDS011;37392;50.964;6.952;2023-02-07T08:19:02;8.45;;;4.70;;
51304;SDS011;37392;50.964;6.952;2023-02-07T08:21:27;11.32;;;4.18;;
51304;SDS011;37392;50.964;6.952;2023-02-07T08:23:53;16.38;;;3.75;;
51304;SDS011;37392;50.964;6.952;2023-02-07T08:26:19;6.93;;;4.60;;
51304;SDS011;37392;50.964;6.952;2023-02-07T08:28:46;8.82;;;4.43;;
51304;SDS011;37392;50.964;6.952;2023-02-07T08:31:13;6.82;;;4.53;;
51304;SDS011;37392;50.964;6.952;2023-02-07T08:33:39;7.65;;;4.40;;
51304;SDS011;37392;50.964;6.952;2023-02-07T08:36:04;8.15;;;4.78;;
51304;SDS011;37392;50.964;6.952;2023-02-07T08:38:33;10.27;;;5.32;;
51304;SDS011;37392;50.964;6.952;2023-02-07T08:41:00;8.07;;;4.63;;
51304;SDS011;37392;50.964;6.952;2023-02-07T08:43:25;9.43;;;4.90;;
51304;SDS011;37392;50.964;6.952;2023-02-07T08:45:51;7.18;;;4.40;;
51304;SDS011;37392;50.964;6.952;2023-02-07T08:48:17;9.85;;;4.90;;
51304;SDS011;37392;50.964;6.952;2023-02-07T08:50:43;7.03;;;4.20;;
51304;SDS011;37392;50.964;6.952;2023-02-07T08:53:09;7.55;;;4.57;;
51304;SDS011;37392;50.964;6.952;2023-02-07T08:55:35;8.43;;;4.65;;
51304;SDS011;37392;50.964;6.952;2023-02-07T08:58:01;6.85;;;4.85;;
51304;SDS011;37392;50.964;6.952;2023-02-07T09:00:26;6.68;;;4.68;;
51304;SDS011;37392;50.964;6.952;2023-02-07T09:02:52;11.82;;;4.80;;
51304;SDS011;37392;50.964;6.952;2023-02-07T09:05:18;6.20;;;4.95;;
51304;SDS011;37392;50.964;6.952;2023-02-07T09:07:43;9.63;;;4.70;;
51304;SDS011;37392;50.964;6.952;2023-02-07T09:10:09;8.23;;;4.43;;
51304;SDS011;37392;50.964;6.952;2023-02-07T09:12:35;8.45;;;4.47;;
51304;SDS011;37392;50.964;6.952;2023-02-07T09:15:02;10.10;;;4.97;;
51304;SDS011;37392;50.964;6.952;2023-02-07T09:17:30;6.53;;;4.50;;
51304;SDS011;37392;50.964;6.952;2023-02-07T09:19:55;8.00;;;5.32;;
51304;SDS011;37392;50.964;6.952;2023-02-07T09:22:21;14.95;;;5.15;;
51304;SDS011;37392;50.964;6.952;2023-02-07T09:24:47;9.13;;;5.40;;
51304;SDS011;37392;50.964;6.952;2023-02-07T09:27:13;6.97;;;5.35;;
51304;SDS011;37392;50.964;6.952;2023-02-07T09:29:38;7.90;;;5.45;;
51304;SDS011;37392;50.964;6.952;2023-02-07T09:32:04;7.78;;;5.15;;
51304;SDS011;37392;50.964;6.952;2023-02-07T09:34:31;12.25;;;5.57;;
51304;SDS011;37392;50.964;6.952;2023-02-07T09:36:58;6.95;;;4.88;;
51304;SDS011;37392;50.964;6.952;2023-02-07T09:39:24;7.15;;;5.43;;
51304;SDS011;37392;50.964;6.952;2023-02-07T09:45:02;10.43;;;5.93;;
51304;SDS011;37392;50.964;6.952;2023-02-07T09:47:35;9.82;;;5.95;;
51304;SDS011;37392;50.964;6.952;2023-02-07T09:50:07;9.02;;;5.15;;
51304;SDS011;37392;50.964;6.952;2023-02-07T09:52:51;9.25;;;5.45;;
51304;SDS011;37392;50.964;6.952;2023-02-07T09:55:25;8.93;;;5.65;;
51304;SDS011;37392;50.964;6.952;2023-02-07T09:58:05;11.25;;;5.60;;
51304;SDS011;37392;50.964;6.952;2023-02-07T10:00:43;10.10;;;6.10;;
51304;SDS011;37392;50.964;6.952;2023-02-07T10:03:22;10.70;;;5.40;;
51304;SDS011;37392;50.964;6.952;2023-02-07T10:06:02;13.45;;;5.57;;
51304;SDS011;37392;50.964;6.952;2023-02-07T10:08:32;8.15;;;5.40;;
51304;SDS011;37392;50.964;6.952;2023-02-07T10:22:26;9.00;;;4.95;;
51304;SDS011;37392;50.964;6.952;2023-02-07T10:30:37;8.82;;;5.45;;
51304;SDS011;37392;50.964;6.952;2023-02-07T10:33:25;7.28;;;5.07;;
51304;SDS011;37392;50.964;6.952;2023-02-07T10:35:59;10.50;;;5.65;;
51304;SDS011;37392;50.964;6.952;2023-02-07T10:39:13;9.25;;;5.28;;
51304;SDS011;37392;50.964;6.952;2023-02-07T10:41:37;8.88;;;5.40;;
51304;SDS011;37392;50.964;6.952;2023-02-07T10:44:11;8.82;;;5.38;;
51304;SDS011;37392;50.964;6.952;2023-02-07T10:46:42;10.27;;;5.30;;
51304;SDS011;37392;50.964;6.952;2023-02-07T10:49:20;6.93;;;5.05;;
51304;SDS011;37392;50.964;6.952;2023-02-07T10:51:52;8.93;;;5.25;;
51304;SDS011;37392;50.964;6.952;2023-02-07T10:54:55;6.38;;;4.68;;
51304;SDS011;37392;50.964;6.952;2023-02-07T10:57:23;8.95;;;5.43;;
51304;SDS011;37392;50.964;6.952;2023-02-07T11:02:36;11.98;;;5.38;;
51304;SDS011;37392;50.964;6.952;2023-02-07T11:07:41;10.63;;;5.90;;
51304;SDS011;37392;50.964;6.952;2023-02-07T11:10:47;9.32;;;6.15;;
51304;SDS011;37392;50.964;6.952;2023-02-07T11:13:17;14.27;;;5.90;;
51304;SDS011;37392;50.964;6.952;2023-02-07T11:15:57;10.50;;;6.07;;
51304;SDS011;37392;50.964;6.952;2023-02-07T11:18:41;8.40;;;5.82;;
51304;SDS011;37392;50.964;6.952;2023-02-07T11:23:51;10.65;;;5.70;;
51304;SDS011;37392;50.964;6.952;2023-02-07T11:26:19;14.45;;;7.53;;
51304;SDS011;37392;50.964;6.952;2023-02-07T11:28:51;9.27;;;5.93;;
51304;SDS011;37392;50.964;6.952;2023-02-07T11:31:41;10.35;;;5.93;;
51304;SDS011;37392;50.964;6.952;2023-02-07T11:39:43;11.43;;;6.10;;
51304;SDS011;37392;50.964;6.952;2023-02-07T11:42:11;8.48;;;5.55;;
51304;SDS011;37392;50.964;6.952;2023-02-07T11:44:42;8.52;;;5.75;;
51304;SDS011;37392;50.964;6.952;2023-02-07T11:47:12;9.15;;;5.75;;
51304;SDS011;37392;50.964;6.952;2023-02-07T11:50:02;8.63;;;5.20;;
51304;SDS011;37392;50.964;6.952;2023-02-07T11:52:31;12.07;;;4.90;;
51304;SDS011;37392;50.964;6.952;2023-02-07T11:55:05;14.93;;;5.88;;
51304;SDS011;37392;50.964;6.952;2023-02-07T11:57:33;8.20;;;4.72;;
51304;SDS011;37392;50.964;6.952;2023-02-07T12:02:40;12.27;;;6.05;;
51304;SDS011;37392;50.964;6.952;2023-02-07T12:05:22;11.75;;;5.57;;
51304;SDS011;37392;50.964;6.952;2023-02-07T12:07:58;9.63;;;6.30;;
51304;SDS011;37392;50.964;6.952;2023-02-07T12:10:34;8.75;;;5.70;;
51304;SDS011;37392;50.964;6.952;2023-02-07T12:13:13;9.77;;;6.38;;
51304;SDS011;37392;50.964;6.952;2023-02-07T12:15:48;9.80;;;5.63;;
51304;SDS011;37392;50.964;6.952;2023-02-07T12:18:27;13.30;;;6.35;;
51304;SDS011;37392;50.964;6.952;2023-02-07T12:23:51;10.88;;;6.18;;
51304;SDS011;37392;50.964;6.952;2023-02-07T12:35:04;7.47;;;4.88;;
51304;SDS011;37392;50.964;6.952;2023-02-07T12:43:29;8.70;;;5.75;;
51304;SDS011;37392;50.964;6.952;2023-02-07T12:46:09;13.18;;;5.47;;
51304;SDS011;37392;50.964;6.952;2023-02-07T12:49:07;9.90;;;5.45;;
51304;SDS011;37392;50.964;6.952;2023-02-07T12:57:39;9.20;;;5.63;;
51304;SDS011;37392;50.964;6.952;2023-02-07T13:06:30;11.30;;;5.38;;
51304;SDS011;37392;50.964;6.952;2023-02-07T13:21:34;10.63;;;4.85;;
51304;SDS011;37392;50.964;6.952;2023-02-07T13:23:36;9.40;;;5.65;;
51304;SDS011;37392;50.964;6.952;2023-02-07T13:26:10;9.52;;;5.07;;
51304;SDS011;37392;50.964;6.952;2023-02-07T13:28:54;7.90;;;4.72;;
51304;SDS011;37392;50.964;6.952;2023-02-07T13:34:34;9.05;;;5.88;;
51304;SDS011;37392;50.964;6.952;2023-02-07T13:37:58;9.32;;;6.10;;
51304;SDS011;37392;50.964;6.952;2023-02-07T13:41:00;10.60;;;6.15;;
51304;SDS011;37392;50.964;6.952;2023-02-07T13:43:53;7.38;;;4.82;;
51304;SDS011;37392;50.964;6.952;2023-02-07T13:47:19;13.65;;;5.95;;
51304;SDS011;37392;50.964;6.952;2023-02-07T13:53:16;13.55;;;5.55;;
51304;SDS011;37392;50.964;6.952;2023-02-07T13:56:15;11.65;;;5.20;;
51304;SDS011;37392;50.964;6.952;2023-02-07T13:59:00;9.85;;;5.30;;
51304;SDS011;37392;50.964;6.952;2023-02-07T14:01:46;7.93;;;5.18;;
51304;SDS011;37392;50.964;6.952;2023-02-07T14:04:17;15.15;;;6.70;;
51304;SDS011;37392;50.964;6.952;2023-02-07T14:06:54;10.13;;;5.47;;
51304;SDS011;37392;50.964;6.952;2023-02-07T14:09:36;8.40;;;4.38;;
51304;SDS011;37392;50.964;6.952;2023-02-07T14:15:26;10.25;;;5.05;;
51304;SDS011;37392;50.964;6.952;2023-02-07T14:21:21;9.68;;;5.10;;
51304;SDS011;37392;50.964;6.952;2023-02-07T14:31:57;9.32;;;4.53;;
51304;SDS011;37392;50.964;6.952;2023-02-07T14:35:28;8.82;;;4.88;;
51304;SDS011;37392;50.964;6.952;2023-02-07T14:45:37;5.57;;;3.70;;
51304;SDS011;37392;50.964;6.952;2023-02-07T14:48:31;8.35;;;4.78;;
51304;SDS011;37392;50.964;6.952;2023-02-07T14:51:13;9.88;;;4.68;;
51304;SDS011;37392;50.964;6.952;2023-02-07T14:59:17;5.65;;;3.80;;
51304;SDS011;37392;50.964;6.952;2023-02-07T15:04:52;9.07;;;4.53;;
51304;SDS011;37392;50.964;6.952;2023-02-07T15:07:18;15.30;;;5.63;;
51304;SDS011;37392;50.964;6.952;2023-02-07T15:09:43;9.07;;;5.95;;
51304;SDS011;37392;50.964;6.952;2023-02-07T15:12:09;6.65;;;4.45;;
51304;SDS011;37392;50.964;6.952;2023-02-07T15:14:42;13.68;;;6.63;;
51304;SDS011;37392;50.964;6.952;2023-02-07T15:17:08;8.55;;;4.57;;
51304;SDS011;37392;50.964;6.952;2023-02-07T15:19:35;9.43;;;4.60;;
51304;SDS011;37392;50.964;6.952;2023-02-07T15:22:04;9.43;;;4.50;;
51304;SDS011;37392;50.964;6.952;2023-02-07T15:24:34;12.68;;;5.57;;
51304;SDS011;37392;50.964;6.952;2023-02-07T15:27:03;10.15;;;4.75;;
51304;SDS011;37392;50.964;6.952;2023-02-07T15:29:33;8.20;;;4.38;;
51304;SDS011;37392;50.964;6.952;2023-02-07T15:32:10;7.85;;;4.97;;
51304;SDS011;37392;50.964;6.952;2023-02-07T15:35:12;13.40;;;4.30;;
51304;SDS011;37392;50.964;6.952;2023-02-07T15:37:51;8.90;;;4.53;;
51304;SDS011;37392;50.964;6.952;2023-02-07T15:40:21;7.35;;;4.30;;
51304;SDS011;37392;50.964;6.952;2023-02-07T15:42:52;7.60;;;4.70;;
51304;SDS011;37392;50.964;6.952;2023-02-07T15:50:25;9.60;;;5.25;;
51304;SDS011;37392;50.964;6.952;2023-02-07T15:52:55;6.38;;;4.10;;
51304;SDS011;37392;50.964;6.952;2023-02-07T15:55:45;9.60;;;4.45;;
51304;SDS011;37392;50.964;6.952;2023-02-07T16:00:57;7.10;;;4.07;;
51304;SDS011;37392;50.964;6.952;2023-02-07T16:03:26;6.28;;;3.40;;
51304;SDS011;37392;50.964;6.952;2023-02-07T16:08:45;14.05;;;5.53;;
51304;SDS011;37392;50.964;6.952;2023-02-07T16:16:24;10.23;;;4.47;;
51304;SDS011;37392;50.964;6.952;2023-02-07T16:18:50;10.95;;;5.00;;
51304;SDS011;37392;50.964;6.952;2023-02-07T16:21:21;10.18;;;5.65;;
51304;SDS011;37392;50.964;6.952;2023-02-07T16:23:49;10.43;;;5.57;;
51304;SDS011;37392;50.964;6.952;2023-02-07T16:26:33;10.55;;;5.38;;
51304;SDS011;37392;50.964;6.952;2023-02-07T16:29:00;7.32;;;4.50;;
51304;SDS011;37392;50.964;6.952;2023-02-07T16:31:30;8.67;;;4.77;;
51304;SDS011;37392;50.964;6.952;2023-02-07T16:33:57;15.02;;;7.82;;
51304;SDS011;37392;50.964;6.952;2023-02-07T16:36:23;15.88;;;7.50;;
51304;SDS011;37392;50.964;6.952;2023-02-07T16:38:49;10.00;;;4.95;;
51304;SDS011;37392;50.964;6.952;2023-02-07T16:41:21;13.60;;;6.20;;
51304;SDS011;37392;50.964;6.952;2023-02-07T16:43:55;13.47;;;6.83;;
51304;SDS011;37392;50.964;6.952;2023-02-07T16:46:23;10.48;;;5.60;;
51304;SDS011;37392;50.964;6.952;2023-02-07T16:48:48;10.25;;;5.47;;
51304;SDS011;37392;50.964;6.952;2023-02-07T16:51:14;22.58;;;9.70;;
51304;SDS011;37392;50.964;6.952;2023-02-07T16:53:40;16.35;;;7.38;;
51304;SDS011;37392;50.964;6.952;2023-02-07T16:56:07;15.45;;;7.93;;
51304;SDS011;37392;50.964;6.952;2023-02-07T16:58:37;13.98;;;5.95;;
51304;SDS011;37392;50.964;6.952;2023-02-07T17:01:03;11.95;;;5.63;;
51304;SDS011;37392;50.964;6.952;2023-02-07T17:03:28;15.45;;;8.43;;
51304;SDS011;37392;50.964;6.952;2023-02-07T17:05:54;12.52;;;7.15;;
51304;SDS011;37392;50.964;6.952;2023-02-07T17:08:20;14.30;;;6.85;;
51304;SDS011;37392;50.964;6.952;2023-02-07T17:10:52;12.27;;;6.10;;
51304;SDS011;37392;50.964;6.952;2023-02-07T17:13:23;19.05;;;8.25;;
51304;SDS011;37392;50.964;6.952;2023-02-07T17:15:49;17.15;;;7.32;;
51304;SDS011;37392;50.964;6.952;2023-02-07T17:18:15;10.38;;;5.72;;
51304;SDS011;37392;50.964;6.952;2023-02-07T17:20:40;10.07;;;5.05;;
51304;SDS011;37392;50.964;6.952;2023-02-07T17:23:06;26.35;;;12.65;;
51304;SDS011;37392;50.964;6.952;2023-02-07T17:25:32;17.63;;;6.65;;
51304;SDS011;37392;50.964;6.952;2023-02-07T17:27:57;15.38;;;7.15;;
51304;SDS011;37392;50.964;6.952;2023-02-07T17:30:25;20.05;;;8.80;;
51304;SDS011;37392;50.964;6.952;2023-02-07T17:33:05;22.25;;;8.38;;
51304;SDS011;37392;50.964;6.952;2023-02-07T17:35:33;16.63;;;6.80;;
51304;SDS011;37392;50.964;6.952;2023-02-07T17:37:58;10.75;;;5.72;;
51304;SDS011;37392;50.964;6.952;2023-02-07T17:40:34;17.33;;;7.43;;
51304;SDS011;37392;50.964;6.952;2023-02-07T17:43:03;25.42;;;11.43;;
51304;SDS011;37392;50.964;6.952;2023-02-07T17:45:29;19.73;;;9.02;;
51304;SDS011;37392;50.964;6.952;2023-02-07T17:47:57;23.23;;;10.30;;
51304;SDS011;37392;50.964;6.952;2023-02-07T17:50:34;20.63;;;10.10;;
51304;SDS011;37392;50.964;6.952;2023-02-07T17:55:30;14.90;;;8.18;;